Soaring Guidance
Issued by NWS Reno, NV

Home | Current Version | Previous Version | Text Only | Print | Product List | Glossary On
Versions: 1 2 3 4 5 6
000
UXUS97 KREV 091543
SRGREV

SOARING FORECAST
NATIONAL WEATHER SERVICE - RENO NV
700 AM PST FRI DEC 9 2016

THIS SOARING FORECAST IS FOR THE EASTERN SIERRA AND WESTERN NEVADA
WITH SPECIFIC INDICES FOR THE GREATER RENO AREA.

THIS FORECAST IS PREPARED DAILY BY 700 AM AND IS NOT UPDATED.

FOR CURRENT FLIGHT CONDITIONS...FORECASTS...AND ADVISORIES...ACCESS
YOUR LOCAL BRIEFING OUTLET OR FLIGHT SERVICE STATION.

*******************************************************************
FORECASTED LOCAL INDICES FOR RENO:        TODAY     YESTERDAY
FORECASTED MAX TEMP AT RENO (DEG F).....     57          57
FORECASTED TRIGGER TEMPERATURE (DEG F)..     52          50
   EXCEEDED YESTERDAY BY 1355 PM PST
FORECASTED MAXIMUM ALTITUDE (FT MSL)....  11200        8300
FORECASTED SOARING INDEX (FPM)..........    516         279
FORECASTED K-INDEX.........VALID 18Z....      5          21
FORECASTED K-INDEX.........VALID 00Z....     16          25
FORECASTED LIFTED INDEX....VALID 18Z....      5           5
FORECASTED LIFTED INDEX....VALID 00Z....      6           5

AFTERNOON WINDS ALOFT FORECAST
MSL (FT) WIND/TEMP
9000  2534/+02
10000 2538/+01
12000 2745/-01
14000 2747/-06
16000 2749/-11
18000 2755/-16
24000 2760/-27
30000 2855/-45
34000 2758/-56
39000 2770/-65

SLIDE MOUNTAIN DATA:
     DATE       TIME     TEMP  DEWPT   RH         WIND (MPH)
                        (F)   (F)           | DIR  SPEED GUST
2016-12-09    05:30      29    29    100    | 294   12   15
2016-12-09    05:20      30    30    100    | 294   13   17
2016-12-09    05:00      30    30    100    | 294   12   15
2016-12-09    04:50      29    29    100    | 294   13   16

RENO TAF FORECAST:
KRNO 091125Z 0912/1012 19011KT P6SM BKN060 BKN120
     FM092200 20015G25KT P6SM BKN050 BKN100 WS020/25040KT
     FM100500 20022G35KT P6SM BKN040 BKN080 WS020/25050KT
     FM100700 22022G35KT P6SM -SHRA SCT020 BKN040 OVC080
      WS020/25045KT

CARSON CITY TAF FORECAST:
KCXP 091125Z 0912/1012 16011KT P6SM BKN050 BKN100
     FM092200 19011G18KT P6SM BKN045 BKN080 WS020/25040KT
     FM100500 21014G28KT P6SM BKN040 BKN070 WS020/25050KT
     FM100700 22015G30KT P6SM -SHRA SCT020 BKN040 OVC080
      WS020/25045KT

OUTLOOK FOR THE RENO-CARSON CITY-MINDEN AREA:
.SATURDAY...RAIN LIKELY. HIGHS 53 TO 58. SOUTHWEST WINDS 10 TO
20 MPH WITH GUSTS UP TO 50 MPH.

SUNRISE AND SUNSET
DECEMBER  9 2016......SUNRISE   708 AM PST   SUNSET   435 PM PST
DECEMBER 10 2016......SUNRISE   709 AM PST   SUNSET   435 PM PST
SOARING FORECAST
NATIONAL WEATHER SERVICE - RENO NV
700 AM PST FRI DEC 9 2016

THIS SOARING FORECAST IS FOR THE EASTERN SIERRA AND WESTERN NEVADA
WITH SPECIFIC INDICES FOR THE GREATER RENO AREA.

THIS FORECAST IS PREPARED DAILY BY 700 AM AND IS NOT UPDATED.

FOR CURRENT FLIGHT CONDITIONS...FORECASTS...AND ADVISORIES...ACCESS
YOUR LOCAL BRIEFING OUTLET OR FLIGHT SERVICE STATION.

*******************************************************************
FORECASTED LOCAL INDICES FOR RENO:        TODAY     YESTERDAY
FORECASTED MAX TEMP AT RENO (DEG F).....     57          57
FORECASTED TRIGGER TEMPERATURE (DEG F)..     52          50
   EXCEEDED YESTERDAY BY 1355 PM PST
FORECASTED MAXIMUM ALTITUDE (FT MSL)....  11200        8300
FORECASTED SOARING INDEX (FPM)..........    516         279
FORECASTED K-INDEX.........VALID 18Z....     MM          21
FORECASTED K-INDEX.........VALID 00Z....     MM          25
FORECASTED LIFTED INDEX....VALID 18Z....     MM           5
FORECASTED LIFTED INDEX....VALID 00Z....     MM           5

AFTERNOON WINDS ALOFT FORECAST
MSL (FT) WIND/TEMP
9000  2534/+02
10000 2538/+01
12000 2745/-01
14000 2747/-06
16000 2749/-11
18000 2755/-16
24000 2760/-27
30000 2855/-45
34000 2758/-56
39000 2770/-65

SLIDE MOUNTAIN DATA:
     DATE       TIME     TEMP  DEWPT   RH         WIND (MPH)
                        (F)   (F)           | DIR  SPEED GUST
2016-12-09    05:30      29    29    100    | 294   12   15
2016-12-09    05:20      30    30    100    | 294   13   17
2016-12-09    05:00      30    30    100    | 294   12   15
2016-12-09    04:50      29    29    100    | 294   13   16

RENO TAF FORECAST:
KRNO 091125Z 0912/1012 19011KT P6SM BKN060 BKN120
     FM092200 20015G25KT P6SM BKN050 BKN100 WS020/25040KT
     FM100500 20022G35KT P6SM BKN040 BKN080 WS020/25050KT
     FM100700 22022G35KT P6SM -SHRA SCT020 BKN040 OVC080
      WS020/25045KT

CARSON CITY TAF FORECAST:
KCXP 091125Z 0912/1012 16011KT P6SM BKN050 BKN100
     FM092200 19011G18KT P6SM BKN045 BKN080 WS020/25040KT
     FM100500 21014G28KT P6SM BKN040 BKN070 WS020/25050KT
     FM100700 22015G30KT P6SM -SHRA SCT020 BKN040 OVC080
      WS020/25045KT

OUTLOOK FOR THE RENO-CARSON CITY-MINDEN AREA:
.SATURDAY...RAIN LIKELY. HIGHS 53 TO 58. SOUTHWEST WINDS 10 TO
20 MPH WITH GUSTS UP TO 50 MPH.

SUNRISE AND SUNSET
DECEMBER  9 2016......SUNRISE   708 AM PST   SUNSET   435 PM PST
DECEMBER 10 2016......SUNRISE   709 AM PST   SUNSET   435 PM PST



USA.gov is the U.S. government's official web portal to all federal, state and local government web resources and services.